createdAt,value
2022-10-10T00:01:32.146Z,63.07
2022-10-10T00:04:00.104Z,84.77
2022-10-10T00:06:32.710Z,80.93
2022-10-10T00:09:00.774Z,71.13
2022-10-10T00:11:27.726Z,69.90
2022-10-10T00:13:54.650Z,56.87
2022-10-10T00:16:21.739Z,54.60
2022-10-10T00:18:49.070Z,45.73
2022-10-10T00:21:15.995Z,41.83
2022-10-10T00:23:42.915Z,36.27
2022-10-10T00:26:12.722Z,34.43
2022-10-10T00:28:43.154Z,29.13
2022-10-10T00:31:10.566Z,34.30
2022-10-10T00:33:37.766Z,49.37
2022-10-10T00:36:06.431Z,47.50
2022-10-10T00:38:33.406Z,44.77
2022-10-10T00:41:01.113Z,41.37
2022-10-10T00:43:28.774Z,42.67
2022-10-10T00:45:56.010Z,43.27
2022-10-10T00:48:33.038Z,42.87
2022-10-10T00:51:14.127Z,45.57
2022-10-10T00:53:59.338Z,46.27
2022-10-10T00:56:32.297Z,42.20
2022-10-10T00:59:04.889Z,40.73
2022-10-10T01:01:31.856Z,39.27
2022-10-10T01:04:01.842Z,43.23
2022-10-10T01:06:29.419Z,36.43
2022-10-10T01:08:57.230Z,41.93
2022-10-10T01:11:55.890Z,39.27
2022-10-10T01:14:45.663Z,46.30
2022-10-10T01:17:37.358Z,48.57
2022-10-10T01:20:37.982Z,47.03
2022-10-10T01:23:30.163Z,43.03
2022-10-10T01:26:20.723Z,46.97
2022-10-10T01:29:00.528Z,41.27
2022-10-10T01:31:29.437Z,43.83
2022-10-10T01:34:14.635Z,44.27
2022-10-10T01:37:04.967Z,47.67
2022-10-10T01:39:40.640Z,43.20
2022-10-10T01:42:36.969Z,35.37
2022-10-10T01:45:05.396Z,39.57
2022-10-10T01:47:32.253Z,36.97
2022-10-10T01:50:06.234Z,47.00
2022-10-10T01:52:58.168Z,41.50
2022-10-10T01:55:57.320Z,44.30
2022-10-10T01:58:51.063Z,41.93
2022-10-10T02:01:52.259Z,49.03
2022-10-10T02:04:25.870Z,43.50
2022-10-10T02:07:02.176Z,37.53
2022-10-10T02:09:36.423Z,38.00
2022-10-10T02:12:06.350Z,33.40
2022-10-10T02:14:46.627Z,43.23
2022-10-10T02:17:16.782Z,34.37
2022-10-10T02:19:50.139Z,37.77
2022-10-10T02:22:18.082Z,38.43
2022-10-10T02:24:45.009Z,39.83
2022-10-10T02:27:26.704Z,34.57
2022-10-10T02:29:56.794Z,37.77
2022-10-10T02:32:37.657Z,37.53
2022-10-10T02:35:15.243Z,46.93
2022-10-10T02:37:43.891Z,51.40
2022-10-10T02:40:15.222Z,45.10
2022-10-10T02:42:42.519Z,43.73
2022-10-10T02:45:09.784Z,43.80
2022-10-10T02:47:36.657Z,41.20
2022-10-10T02:50:04.044Z,42.17
2022-10-10T02:52:31.002Z,47.00
2022-10-10T02:54:57.890Z,40.17
2022-10-10T02:57:24.757Z,39.57
2022-10-10T02:59:51.669Z,36.47
2022-10-10T03:02:18.655Z,44.23
2022-10-10T03:04:45.556Z,42.07
2022-10-10T03:07:12.738Z,38.03
2022-10-10T03:09:39.635Z,42.67
2022-10-10T03:12:06.627Z,35.60
2022-10-10T03:14:33.576Z,34.03
2022-10-10T03:17:00.760Z,32.60
2022-10-10T03:19:27.666Z,36.30
2022-10-10T03:21:54.881Z,38.17
2022-10-10T03:24:21.760Z,34.93
2022-10-10T03:26:48.648Z,34.10
2022-10-10T03:29:15.510Z,37.97
2022-10-10T03:31:42.380Z,38.03
2022-10-10T03:34:09.669Z,33.80
2022-10-10T03:36:36.724Z,37.60
2022-10-10T03:39:04.149Z,40.70
2022-10-10T03:41:31.128Z,40.23
2022-10-10T03:43:58.073Z,30.73
2022-10-10T03:46:24.969Z,33.33
2022-10-10T03:48:51.934Z,29.93
2022-10-10T03:51:18.955Z,27.97
2022-10-10T03:53:46.113Z,27.90
2022-10-10T03:56:13.201Z,30.07
2022-10-10T03:58:40.134Z,25.20
2022-10-10T04:01:07.911Z,25.27
2022-10-10T04:03:34.829Z,26.13
2022-10-10T04:06:01.781Z,25.20
2022-10-10T04:08:30.004Z,23.53
2022-10-10T04:10:56.941Z,24.50
2022-10-10T04:13:25.802Z,27.03
2022-10-10T04:15:54.678Z,23.10
2022-10-10T04:18:22.665Z,22.83
2022-10-10T04:20:49.572Z,25.17
2022-10-10T04:23:16.937Z,23.67
2022-10-10T04:25:44.173Z,21.40
2022-10-10T04:28:14.448Z,25.57
2022-10-10T04:30:41.588Z,25.80
2022-10-10T04:33:08.687Z,30.70
2022-10-10T04:35:37.200Z,29.93
2022-10-10T04:38:04.642Z,31.50
2022-10-10T04:40:31.935Z,33.70
2022-10-10T04:42:59.421Z,32.10
2022-10-10T04:45:26.707Z,36.93
2022-10-10T04:47:56.836Z,33.17
2022-10-10T04:50:23.996Z,30.50
2022-10-10T04:52:51.172Z,33.57
2022-10-10T04:55:18.567Z,38.27
2022-10-10T04:57:45.549Z,33.03
2022-10-10T05:00:12.913Z,33.67
2022-10-10T05:02:39.839Z,39.83
2022-10-10T05:05:07.593Z,35.87
2022-10-10T05:07:34.483Z,35.33
2022-10-10T05:10:01.429Z,34.00
2022-10-10T05:12:28.327Z,32.80
2022-10-10T05:14:55.202Z,33.50
2022-10-10T05:17:22.082Z,32.27
2022-10-10T05:19:49.098Z,30.47
2022-10-10T05:22:16.018Z,33.03
2022-10-10T05:24:43.202Z,31.10
2022-10-10T05:27:10.068Z,29.57
2022-10-10T05:29:36.933Z,35.10
2022-10-10T05:32:09.186Z,34.00
2022-10-10T05:34:37.294Z,34.33
2022-10-10T05:37:04.192Z,36.17
2022-10-10T05:39:31.193Z,34.63
2022-10-10T05:41:58.095Z,30.03
2022-10-10T05:44:25.179Z,28.70
2022-10-10T05:46:52.155Z,30.37
2022-10-10T05:49:19.755Z,32.30
2022-10-10T05:51:46.685Z,31.53
2022-10-10T05:54:13.586Z,38.43
2022-10-10T05:56:40.486Z,33.03
2022-10-10T05:59:07.435Z,31.43
2022-10-10T06:01:34.397Z,35.33
2022-10-10T06:04:01.308Z,30.83
2022-10-10T06:06:28.185Z,30.17
2022-10-10T06:08:55.877Z,32.50
2022-10-10T06:11:25.029Z,28.07
2022-10-10T06:13:54.397Z,31.07
2022-10-10T06:16:26.145Z,27.67
2022-10-10T06:18:53.819Z,27.63
2022-10-10T06:21:20.758Z,35.57
2022-10-10T06:23:48.479Z,27.30
2022-10-10T06:26:15.634Z,31.17
2022-10-10T06:28:42.544Z,26.53
2022-10-10T06:31:12.875Z,29.77
2022-10-10T06:33:43.293Z,27.87
2022-10-10T06:36:11.721Z,33.07
2022-10-10T06:38:40.799Z,29.10
2022-10-10T06:41:08.397Z,28.80
2022-10-10T06:43:35.581Z,30.33
2022-10-10T06:46:02.999Z,76.17
2022-10-10T06:48:31.353Z,27.87
2022-10-10T06:51:06.334Z,31.23
2022-10-10T06:53:33.920Z,31.67
2022-10-10T06:56:01.124Z,28.30
2022-10-10T06:58:29.408Z,29.03
2022-10-10T07:01:00.460Z,33.10
2022-10-10T07:03:29.414Z,27.10
2022-10-10T07:06:00.276Z,28.87
2022-10-10T07:08:27.876Z,34.90
2022-10-10T07:10:54.803Z,30.33
2022-10-10T07:13:22.061Z,31.27
2022-10-10T07:15:49.254Z,31.60
2022-10-10T07:18:18.617Z,42.00
2022-10-10T07:20:45.629Z,32.47
2022-10-10T07:23:12.933Z,31.73
2022-10-10T07:25:41.093Z,27.70
2022-10-10T07:28:08.975Z,30.93
2022-10-10T07:30:46.760Z,24.77
2022-10-10T07:33:14.595Z,23.63
2022-10-10T07:35:42.031Z,28.67
2022-10-10T07:38:11.482Z,23.60
2022-10-10T07:40:41.527Z,24.20
2022-10-10T07:43:08.534Z,28.67
2022-10-10T07:45:37.191Z,22.63
2022-10-10T07:48:04.821Z,20.53
2022-10-10T07:50:31.687Z,20.20
2022-10-10T07:52:58.553Z,20.40
2022-10-10T07:55:25.460Z,20.83
2022-10-10T07:57:53.642Z,21.67
2022-10-10T08:00:20.660Z,22.47
2022-10-10T08:02:49.164Z,20.05
2022-10-10T08:05:17.963Z,20.67
2022-10-10T08:07:44.847Z,18.63
2022-10-10T08:10:12.209Z,20.47
2022-10-10T08:12:39.093Z,20.30
2022-10-10T08:15:07.188Z,20.50
2022-10-10T08:17:34.436Z,17.93
2022-10-10T08:20:01.287Z,19.57
2022-10-10T08:22:28.183Z,15.90
2022-10-10T08:24:55.131Z,16.97
2022-10-10T08:27:22.067Z,17.13
2022-10-10T08:29:48.921Z,15.53
2022-10-10T08:32:15.772Z,14.20
2022-10-10T08:34:43.445Z,13.33
2022-10-10T08:37:10.296Z,15.00
2022-10-10T08:39:37.209Z,14.20
2022-10-10T08:42:04.237Z,12.50
2022-10-10T08:44:56.547Z,10.90
2022-10-10T08:47:39.332Z,10.63
2022-10-10T08:50:21.102Z,11.13
2022-10-10T08:53:32.359Z,8.95
2022-10-10T08:55:59.847Z,9.32
2022-10-10T08:58:47.499Z,8.98
2022-10-10T09:01:27.951Z,7.68
2022-10-10T09:04:02.215Z,6.80
2022-10-10T09:07:05.815Z,10.35
2022-10-10T09:10:03.897Z,10.30
2022-10-10T09:12:38.581Z,8.85
2022-10-10T09:15:31.302Z,6.88
2022-10-10T09:18:13.474Z,11.10
2022-10-10T09:21:08.660Z,7.15
2022-10-10T09:23:47.405Z,9.10
2022-10-10T09:26:20.093Z,9.05
2022-10-10T09:29:00.390Z,9.88
2022-10-10T09:31:35.502Z,9.40
2022-10-10T09:34:23.097Z,7.95
2022-10-10T09:36:50.729Z,8.95
2022-10-10T09:39:39.520Z,9.57
2022-10-10T09:42:16.808Z,7.75
2022-10-10T09:44:44.105Z,8.70
2022-10-10T09:47:16.984Z,7.80
2022-10-10T09:49:44.823Z,6.90
2022-10-10T09:52:27.956Z,8.38
2022-10-10T09:55:02.300Z,7.90
2022-10-10T09:57:38.409Z,5.72
2022-10-10T10:00:34.097Z,7.90
2022-10-10T10:03:13.016Z,5.15
2022-10-10T10:05:43.479Z,4.05
2022-10-10T10:08:35.814Z,5.25
2022-10-10T10:11:04.192Z,5.32
2022-10-10T10:13:37.215Z,5.90
2022-10-10T10:16:13.476Z,6.32
2022-10-10T10:18:47.994Z,4.88
2022-10-10T10:21:20.907Z,3.67
2022-10-10T10:23:52.348Z,3.40
2022-10-10T10:26:23.439Z,5.43
2022-10-10T10:28:52.539Z,4.10
2022-10-10T10:31:43.895Z,4.25
2022-10-10T10:34:42.938Z,5.25
2022-10-10T10:37:24.562Z,4.93
2022-10-10T10:40:04.877Z,3.25
2022-10-10T10:43:26.395Z,7.30
2022-10-10T10:46:28.045Z,5.07
2022-10-10T10:49:11.970Z,3.55
2022-10-10T10:52:00.502Z,8.93
2022-10-10T10:54:49.271Z,3.35
2022-10-10T10:57:36.920Z,3.85
2022-10-10T11:00:47.201Z,4.60
2022-10-10T11:05:24.861Z,2.70
2022-10-10T11:07:19.893Z,5.05
2022-10-10T11:10:17.839Z,5.97
2022-10-10T11:13:10.478Z,2.78
2022-10-10T11:16:06.185Z,3.83
2022-10-10T11:18:38.852Z,4.72
2022-10-10T11:21:09.395Z,3.75
2022-10-10T11:23:46.377Z,4.28
2022-10-10T11:26:23.854Z,4.85
2022-10-10T11:29:06.497Z,3.38
2022-10-10T11:32:12.509Z,3.75
2022-10-10T11:35:03.840Z,3.00
2022-10-10T11:37:36.826Z,3.47
2022-10-10T11:40:06.261Z,5.07
2022-10-10T11:42:46.743Z,3.53
2022-10-10T11:45:21.485Z,4.63
2022-10-10T11:48:18.261Z,3.97
2022-10-10T11:50:51.822Z,4.68
2022-10-10T11:53:43.172Z,3.38
2022-10-10T11:56:41.482Z,3.63
2022-10-10T11:59:25.928Z,3.20
2022-10-10T12:04:36.096Z,7.57
2022-10-10T12:07:12.323Z,4.03
2022-10-10T12:09:45.265Z,3.20
2022-10-10T12:12:33.120Z,3.72
2022-10-10T12:15:03.814Z,4.78
2022-10-10T12:17:36.247Z,4.65
2022-10-10T12:20:31.211Z,4.90
2022-10-10T12:23:23.669Z,3.80
2022-10-10T12:25:50.740Z,4.20
2022-10-10T12:28:17.552Z,3.42
2022-10-10T12:30:58.516Z,3.60
2022-10-10T12:33:48.630Z,5.22
2022-10-10T12:36:18.496Z,3.20
2022-10-10T12:39:06.540Z,3.30
2022-10-10T12:41:47.007Z,4.15
2022-10-10T12:44:45.154Z,3.17
2022-10-10T12:47:15.166Z,4.22
2022-10-10T12:50:05.477Z,4.07
2022-10-10T12:52:36.851Z,3.08
2022-10-10T12:55:16.005Z,3.17
2022-10-10T12:57:46.097Z,4.28
2022-10-10T13:00:19.982Z,3.20
2022-10-10T13:02:53.143Z,3.55
2022-10-10T13:05:31.756Z,3.85
2022-10-10T13:08:05.916Z,3.80
2022-10-10T13:10:33.307Z,3.28
2022-10-10T13:13:17.959Z,3.63
2022-10-10T13:15:54.091Z,4.22
2022-10-10T13:18:49.930Z,4.60
2022-10-10T13:21:29.720Z,3.80
2022-10-10T13:24:03.696Z,4.00
2022-10-10T13:26:47.094Z,4.85
2022-10-10T13:29:41.285Z,4.90
2022-10-10T13:32:18.874Z,4.25
2022-10-10T13:34:54.280Z,3.53
2022-10-10T13:37:21.715Z,5.10
2022-10-10T13:39:50.649Z,3.20
2022-10-10T13:42:37.407Z,3.53
2022-10-10T13:45:30.918Z,7.22
2022-10-10T13:48:17.898Z,2.85
2022-10-10T13:50:44.666Z,5.85
2022-10-10T13:53:30.206Z,5.53
2022-10-10T13:56:15.718Z,5.57
2022-10-10T13:59:00.856Z,5.25
2022-10-10T14:01:30.340Z,4.30
2022-10-10T14:04:05.561Z,6.32
2022-10-10T14:06:32.922Z,3.38
2022-10-10T14:09:20.311Z,4.40
2022-10-10T14:11:49.868Z,5.38
2022-10-10T14:14:27.018Z,6.20
2022-10-10T14:17:08.308Z,6.70
2022-10-10T14:19:35.219Z,6.35
2022-10-10T14:22:02.079Z,3.88
2022-10-10T14:24:29.384Z,6.15
2022-10-10T14:26:56.196Z,4.38
2022-10-10T14:29:23.644Z,4.55
2022-10-10T14:31:50.574Z,3.47
2022-10-10T14:34:17.454Z,4.57
2022-10-10T14:36:50.202Z,2.53
2022-10-10T14:39:18.870Z,3.83
2022-10-10T14:41:46.306Z,3.50
2022-10-10T14:44:14.203Z,3.85
2022-10-10T14:46:42.130Z,3.85
2022-10-10T14:49:19.350Z,2.67
2022-10-10T14:51:47.799Z,4.80
2022-10-10T14:54:15.107Z,4.05
2022-10-10T14:57:08.834Z,4.10
2022-10-10T14:59:47.143Z,8.27
2022-10-10T15:02:21.881Z,3.85
2022-10-10T15:04:49.401Z,2.58
2022-10-10T15:07:16.483Z,3.40
2022-10-10T15:10:10.891Z,3.00
2022-10-10T15:12:34.588Z,3.78
2022-10-10T15:15:01.488Z,3.55
2022-10-10T15:17:30.395Z,4.22
2022-10-10T15:19:57.290Z,3.95
2022-10-10T15:22:24.149Z,5.75
2022-10-10T15:24:51.143Z,5.32
2022-10-10T15:27:17.961Z,3.85
2022-10-10T15:29:44.810Z,3.65
2022-10-10T15:32:11.644Z,2.90
2022-10-10T15:34:38.555Z,5.10
2022-10-10T15:37:05.420Z,4.03
2022-10-10T15:39:35.893Z,3.65
2022-10-10T15:42:10.926Z,4.53
2022-10-10T15:44:46.425Z,4.13
2022-10-10T15:47:15.564Z,3.40
2022-10-10T15:49:42.638Z,6.47
2022-10-10T15:52:10.707Z,10.00
2022-10-10T15:54:37.608Z,12.07
2022-10-10T15:57:04.744Z,13.00
2022-10-10T15:59:31.984Z,11.43
2022-10-10T16:01:58.857Z,6.85
2022-10-10T16:04:26.481Z,10.00
2022-10-10T16:07:19.943Z,8.27
2022-10-10T16:09:41.410Z,5.95
2022-10-10T16:12:08.628Z,6.20
2022-10-10T16:14:35.771Z,8.40
2022-10-10T16:17:02.909Z,10.68
2022-10-10T16:19:29.748Z,6.70
2022-10-10T16:21:56.609Z,8.63
2022-10-10T16:24:23.443Z,6.63
2022-10-10T16:26:50.281Z,3.67
2022-10-10T16:29:18.645Z,6.97
2022-10-10T16:31:45.828Z,8.15
2022-10-10T16:34:15.084Z,7.45
2022-10-10T16:36:42.712Z,9.10
2022-10-10T16:39:09.629Z,12.77
2022-10-10T16:41:52.463Z,14.90
2022-10-10T16:44:19.308Z,25.25
2022-10-10T16:46:46.235Z,31.38
2022-10-10T16:49:16.646Z,44.08
2022-10-10T16:51:43.585Z,54.70
2022-10-10T16:54:10.430Z,56.67
2022-10-10T16:56:37.398Z,53.97
2022-10-10T16:59:05.600Z,60.20
2022-10-10T17:01:32.601Z,58.08
2022-10-10T17:04:01.348Z,58.45
2022-10-10T17:06:38.849Z,59.35
2022-10-10T17:09:08.242Z,60.25
2022-10-10T17:11:35.748Z,51.88
2022-10-10T17:14:02.814Z,67.18
2022-10-10T17:19:17.507Z,51.08
2022-10-10T17:21:44.386Z,56.88
2022-10-10T17:24:11.255Z,58.40
2022-10-10T17:26:39.579Z,53.35
2022-10-10T17:29:06.966Z,30.20
2022-10-10T17:31:34.058Z,32.20
2022-10-10T17:34:00.932Z,23.20
2022-10-10T17:36:28.606Z,19.05
2022-10-10T17:39:01.947Z,15.82
2022-10-10T17:41:33.269Z,21.00
2022-10-10T17:44:00.310Z,16.65
2022-10-10T17:46:34.723Z,21.00
2022-10-10T17:49:08.259Z,16.90
2022-10-10T17:51:37.454Z,29.95
2022-10-10T17:54:06.343Z,24.52
2022-10-10T17:56:33.992Z,39.67
2022-10-10T17:59:01.771Z,28.15
2022-10-10T18:01:30.796Z,34.75
2022-10-10T18:03:58.652Z,29.88
2022-10-10T18:06:26.471Z,37.70
2022-10-10T18:08:54.242Z,38.55
2022-10-10T18:11:28.046Z,31.00
2022-10-10T18:14:00.733Z,22.42
2022-10-10T18:16:32.945Z,27.73
2022-10-10T18:19:00.633Z,24.85
2022-10-10T18:21:28.129Z,28.20
2022-10-10T18:23:55.359Z,29.73
2022-10-10T18:26:25.569Z,29.45
2022-10-10T18:28:55.467Z,27.55
2022-10-10T18:31:34.984Z,23.92
2022-10-10T18:34:03.903Z,29.00
2022-10-10T18:36:34.746Z,26.50
2022-10-10T18:39:08.844Z,24.35
2022-10-10T18:41:35.868Z,21.35
2022-10-10T18:44:08.410Z,21.92
2022-10-10T18:46:36.673Z,28.85
2022-10-10T18:49:06.288Z,33.03
2022-10-10T18:51:33.424Z,37.75
2022-10-10T18:54:04.785Z,33.60
2022-10-10T18:56:36.764Z,28.25
2022-10-10T18:59:06.552Z,30.88
2022-10-10T19:01:36.466Z,25.33
2022-10-10T19:04:05.434Z,25.85
2022-10-10T19:06:32.305Z,33.10
2022-10-10T19:09:01.476Z,28.80
2022-10-10T19:11:32.280Z,31.40
2022-10-10T19:14:02.503Z,23.13
2022-10-10T19:16:30.398Z,23.15
2022-10-10T19:18:59.032Z,23.40
2022-10-10T19:21:29.203Z,23.25
2022-10-10T19:23:56.172Z,23.30
2022-10-10T19:26:23.135Z,21.55
2022-10-10T19:28:50.119Z,31.60
2022-10-10T19:31:19.554Z,44.45
2022-10-10T19:33:52.241Z,37.17
2022-10-10T19:36:19.368Z,39.88
2022-10-10T19:38:46.602Z,36.22
2022-10-10T19:41:14.587Z,36.83
2022-10-10T19:43:44.333Z,40.05
2022-10-10T19:46:16.989Z,29.17
2022-10-10T19:48:44.235Z,26.33
2022-10-10T19:51:16.499Z,33.53
2022-10-10T19:53:44.822Z,32.70
2022-10-10T19:56:24.330Z,32.03
2022-10-10T19:58:59.813Z,26.48
2022-10-10T20:01:29.927Z,25.38
2022-10-10T20:03:57.521Z,27.42
2022-10-10T20:06:24.852Z,28.02
2022-10-10T20:08:52.015Z,25.15
2022-10-10T20:11:20.308Z,24.23
2022-10-10T20:13:53.075Z,22.53
2022-10-10T20:16:21.508Z,31.40
2022-10-10T20:18:48.545Z,31.17
2022-10-10T20:21:23.753Z,30.27
2022-10-10T20:23:51.371Z,32.92
2022-10-10T20:26:21.528Z,28.38
2022-10-10T20:28:50.229Z,24.25
2022-10-10T20:31:26.824Z,27.67
2022-10-10T20:34:03.542Z,25.48
2022-10-10T20:36:32.911Z,28.13
2022-10-10T20:39:05.021Z,22.35
2022-10-10T20:41:33.827Z,23.67
2022-10-10T20:44:03.403Z,21.20
2022-10-10T20:46:35.369Z,20.23
2022-10-10T20:49:05.685Z,19.27
2022-10-10T20:51:32.635Z,17.97
2022-10-10T20:54:03.079Z,19.25
2022-10-10T20:56:31.429Z,26.13
2022-10-10T20:58:59.485Z,20.83
2022-10-10T21:01:30.144Z,20.25
2022-10-10T21:03:58.652Z,22.52
2022-10-10T21:06:31.647Z,21.35
2022-10-10T21:09:01.819Z,24.45
2022-10-10T21:11:28.814Z,23.33
2022-10-10T21:13:58.809Z,28.58
2022-10-10T21:16:33.827Z,27.33
2022-10-10T21:19:02.222Z,20.77
2022-10-10T21:21:34.741Z,21.73
2022-10-10T21:24:04.475Z,22.83
2022-10-10T21:26:33.692Z,20.90
2022-10-10T21:29:01.215Z,19.65
2022-10-10T21:31:32.485Z,25.58
2022-10-10T21:34:02.169Z,23.23
2022-10-10T21:36:30.140Z,19.92
2022-10-10T21:38:57.346Z,19.33
2022-10-10T21:41:25.816Z,30.05
2022-10-10T21:43:56.026Z,18.38
2022-10-10T21:46:33.605Z,17.48
2022-10-10T21:49:05.643Z,18.60
2022-10-10T21:51:39.856Z,20.13
2022-10-10T21:54:07.655Z,19.42
2022-10-10T21:56:35.324Z,16.13
2022-10-10T21:59:03.021Z,20.23
2022-10-10T22:01:32.971Z,20.05
2022-10-10T22:04:01.987Z,16.88
2022-10-10T22:06:29.277Z,17.13
2022-10-10T22:08:59.210Z,15.15
2022-10-10T22:11:27.778Z,17.50
2022-10-10T22:13:54.838Z,20.50
2022-10-10T22:16:22.058Z,16.98
2022-10-10T22:18:54.548Z,16.92
2022-10-10T22:21:21.573Z,20.08
2022-10-10T22:23:48.800Z,19.95
2022-10-10T22:26:17.221Z,15.88
2022-10-10T22:28:44.778Z,19.00
2022-10-10T22:31:14.746Z,19.35
2022-10-10T22:33:42.279Z,18.83
2022-10-10T22:36:09.835Z,16.80
2022-10-10T22:38:40.120Z,19.00
2022-10-10T22:41:07.438Z,18.35
2022-10-10T22:43:34.592Z,17.02
2022-10-10T22:46:02.554Z,18.55
2022-10-10T22:48:29.663Z,21.15
2022-10-10T22:51:06.789Z,12.88
2022-10-10T22:53:33.788Z,15.75
2022-10-10T22:56:01.052Z,16.30
2022-10-10T22:58:28.438Z,15.68
2022-10-10T23:00:56.643Z,12.35
2022-10-10T23:03:23.588Z,15.77
2022-10-10T23:05:50.450Z,13.68
2022-10-10T23:08:17.432Z,13.77
2022-10-10T23:10:44.631Z,17.30
2022-10-10T23:13:11.758Z,14.98
2022-10-10T23:15:38.688Z,16.77
2022-10-10T23:18:06.026Z,16.33
2022-10-10T23:20:33.467Z,15.63
2022-10-10T23:23:00.586Z,15.00
2022-10-10T23:25:27.519Z,12.68
2022-10-10T23:27:54.476Z,14.52
2022-10-10T23:30:21.433Z,13.02
2022-10-10T23:32:48.331Z,14.17
2022-10-10T23:35:15.382Z,12.45
2022-10-10T23:37:42.366Z,13.95
2022-10-10T23:40:10.082Z,15.43
2022-10-10T23:42:36.993Z,16.40
2022-10-10T23:45:04.313Z,14.73
2022-10-10T23:47:31.230Z,16.43
2022-10-10T23:49:58.951Z,14.13
2022-10-10T23:52:25.840Z,16.35
2022-10-10T23:54:52.800Z,12.27
2022-10-10T23:57:19.682Z,13.40
2022-10-10T23:59:46.643Z,11.98
